Time;durP1;ratioP1;P1;durP2;ratioP2;P2;SDS_P1;SDS_P2;PMS_P1;PMS_P2;Temp;Humidity;BMP_temperature;BMP_pressure;BME280_temperature;BME280_humidity;BME280_pressure;Samples;Min_cycle;Max_cycle;Signal;HPM_P1;HPM_P2
2020/12/30 00:00:39;;;;;;;9.75;6.15;;;8.20;58.30;;;;;;5053159;28;20029;-71
2020/12/30 00:03:05;;;;;;;8.98;5.50;;;8.20;58.40;;;;;;5035258;28;20053;-71
2020/12/30 00:05:31;;;;;;;9.45;6.47;;;8.20;58.50;;;;;;5053080;28;20043;-70
2020/12/30 00:07:57;;;;;;;9.73;5.80;;;8.20;58.30;;;;;;5053146;28;20036;-70
2020/12/30 00:10:23;;;;;;;11.90;7.35;;;8.20;58.20;;;;;;5053056;28;20045;-70
2020/12/30 00:12:49;;;;;;;9.77;6.82;;;8.20;58.20;;;;;;5035255;28;20086;-70
2020/12/30 00:15:17;;;;;;;10.40;7.30;;;8.20;58.30;;;;;;5052750;28;20493;-70
2020/12/30 00:17:44;;;;;;;9.60;6.50;;;8.20;58.60;;;;;;5035034;28;20103;-71
2020/12/30 00:20:16;;;;;;;11.27;6.43;;;8.20;58.60;;;;;;5052873;28;20428;-70
2020/12/30 00:22:43;;;;;;;9.88;6.35;;;8.20;58.50;;;;;;5053352;28;20123;-70
2020/12/30 00:25:09;;;;;;;10.82;7.43;;;8.20;58.40;;;;;;5052665;28;20059;-70
2020/12/30 00:27:38;;;;;;;9.25;6.13;;;8.30;58.70;;;;;;5052835;28;20040;-70
2020/12/30 00:30:11;;;;;;;10.27;7.05;;;8.30;58.70;;;;;;5052727;28;20037;-69
2020/12/30 00:32:37;;;;;;;9.85;6.45;;;8.30;58.40;;;;;;5053298;28;20063;-70
2020/12/30 00:35:05;;;;;;;11.93;8.05;;;8.30;58.40;;;;;;5062007;28;20105;-70
2020/12/30 00:37:31;;;;;;;8.35;6.32;;;8.30;58.20;;;;;;5071479;28;20049;-70
2020/12/30 00:39:57;;;;;;;12.07;7.82;;;8.30;58.50;;;;;;5071404;28;20040;-71
2020/12/30 00:42:22;;;;;;;11.82;6.85;;;8.20;58.30;;;;;;5072818;28;20408;-71
2020/12/30 00:44:48;;;;;;;9.18;6.32;;;8.20;58.50;;;;;;5071257;28;20077;-71
2020/12/30 00:47:15;;;;;;;9.23;6.32;;;8.30;58.40;;;;;;5072686;28;20115;-71
2020/12/30 00:49:41;;;;;;;8.80;5.72;;;8.30;58.30;;;;;;5072582;28;20083;-70
2020/12/30 00:52:08;;;;;;;10.35;7.30;;;8.30;58.10;;;;;;5071347;28;20052;-71
2020/12/30 00:54:41;;;;;;;10.70;6.63;;;8.30;58.60;;;;;;5055388;28;20036;-71
2020/12/30 00:57:16;;;;;;;10.93;7.65;;;8.30;58.40;;;;;;5071279;28;20040;-71
2020/12/30 00:59:42;;;;;;;8.73;5.82;;;8.30;58.70;;;;;;5071653;28;20043;-71
2020/12/30 01:02:09;;;;;;;13.52;7.97;;;8.30;58.60;;;;;;5071411;28;20041;-68
2020/12/30 01:04:37;;;;;;;8.93;5.97;;;8.30;58.50;;;;;;5070894;28;20072;-68
2020/12/30 01:07:03;;;;;;;11.75;6.05;;;8.30;58.60;;;;;;5072572;28;20086;-69
2020/12/30 01:09:29;;;;;;;9.80;6.40;;;8.30;58.30;;;;;;5071326;28;20043;-69
2020/12/30 01:12:03;;;;;;;10.20;6.75;;;8.30;58.30;;;;;;5072441;28;20033;-71
2020/12/30 01:14:29;;;;;;;10.35;6.15;;;8.30;58.30;;;;;;5072610;28;20047;-70
2020/12/30 01:16:55;;;;;;;11.32;7.60;;;8.30;58.40;;;;;;5072177;28;20040;-71
2020/12/30 01:19:21;;;;;;;9.27;6.68;;;8.30;58.00;;;;;;5071703;28;20400;-71
2020/12/30 01:21:48;;;;;;;9.57;6.60;;;8.30;58.20;;;;;;5074309;28;20048;-71
2020/12/30 01:24:14;;;;;;;12.35;7.25;;;8.30;57.80;;;;;;5075785;28;20036;-71
2020/12/30 01:26:40;;;;;;;9.50;6.68;;;8.30;58.00;;;;;;5074449;28;20033;-70
2020/12/30 01:29:06;;;;;;;9.80;7.20;;;8.30;57.80;;;;;;5076107;28;20043;-69
2020/12/30 01:31:33;;;;;;;8.82;5.95;;;8.30;58.30;;;;;;5076148;28;20037;-70
2020/12/30 01:34:00;;;;;;;9.95;6.88;;;8.30;58.20;;;;;;5069351;28;20060;-71
2020/12/30 01:36:27;;;;;;;9.27;6.70;;;8.40;58.00;;;;;;5021374;28;20083;-70
2020/12/30 01:38:54;;;;;;;11.20;7.25;;;8.30;57.80;;;;;;5055759;28;20086;-69
2020/12/30 01:41:20;;;;;;;9.88;6.05;;;8.40;58.20;;;;;;5055438;28;20435;-69
2020/12/30 01:44:07;;;;;;;10.40;7.38;;;8.40;58.30;;;;;;5037734;28;20033;-69
2020/12/30 01:46:44;;;;;;;8.07;5.63;;;8.40;58.40;;;;;;5055677;28;20041;-70
2020/12/30 01:49:13;;;;;;;10.65;7.40;;;8.40;58.20;;;;;;5055758;28;20029;-71
2020/12/30 01:51:42;;;;;;;9.55;6.25;;;8.40;58.10;;;;;;5055304;28;20064;-70
2020/12/30 01:54:11;;;;;;;9.25;5.97;;;8.40;57.80;;;;;;5021281;28;20503;-70
2020/12/30 01:56:37;;;;;;;7.90;5.70;;;8.40;57.70;;;;;;5037539;28;20508;-71
2020/12/30 01:59:19;;;;;;;8.65;6.18;;;8.40;57.80;;;;;;5055185;28;20385;-70
2020/12/30 02:02:11;;;;;;;8.75;6.20;;;8.40;57.60;;;;;;5055571;28;20040;-71
2020/12/30 02:04:53;;;;;;;7.85;6.13;;;8.40;57.50;;;;;;5044498;28;20404;-70
2020/12/30 02:07:22;;;;;;;8.18;5.95;;;8.40;57.50;;;;;;5021161;28;20033;-70
2020/12/30 02:09:48;;;;;;;10.50;6.90;;;8.40;57.20;;;;;;5055084;28;20484;-70
2020/12/30 02:12:15;;;;;;;7.50;5.75;;;8.40;57.60;;;;;;5037341;28;20036;-71
2020/12/30 02:14:40;;;;;;;8.20;6.18;;;8.40;57.80;;;;;;5055023;28;20040;-70
2020/12/30 02:17:15;;;;;;;7.35;5.10;;;8.40;57.60;;;;;;5055147;28;20037;-71
2020/12/30 02:19:42;;;;;;;9.20;6.72;;;8.40;57.90;;;;;;5020638;28;20032;-70
2020/12/30 02:22:09;;;;;;;7.90;5.18;;;8.40;57.70;;;;;;5055051;28;20033;-71
2020/12/30 02:24:36;;;;;;;10.07;7.05;;;8.40;57.60;;;;;;5054692;28;20385;-70
2020/12/30 02:27:04;;;;;;;9.25;6.60;;;8.40;57.60;;;;;;5037420;28;20087;-70
2020/12/30 02:29:32;;;;;;;9.82;6.53;;;8.40;57.60;;;;;;5054555;28;20041;-70
2020/12/30 02:31:58;;;;;;;8.40;5.30;;;8.40;57.60;;;;;;5054701;28;20040;-70
2020/12/30 02:34:25;;;;;;;9.02;5.93;;;8.40;57.90;;;;;;5054420;28;20119;-70
2020/12/30 02:36:51;;;;;;;8.75;6.50;;;8.40;57.50;;;;;;5036981;28;20047;-70
2020/12/30 02:39:19;;;;;;;8.88;5.78;;;8.40;57.70;;;;;;5054790;28;20037;-71
2020/12/30 02:41:46;;;;;;;8.48;6.18;;;8.50;57.50;;;;;;5036726;28;20382;-70
2020/12/30 02:44:12;;;;;;;9.02;6.30;;;8.50;57.80;;;;;;5019951;28;20029;-70
2020/12/30 02:46:38;;;;;;;9.35;6.22;;;8.50;57.70;;;;;;5054586;28;20028;-70
2020/12/30 02:49:04;;;;;;;7.32;5.75;;;8.40;57.50;;;;;;5054376;28;20443;-70
2020/12/30 02:51:30;;;;;;;8.85;6.22;;;8.50;57.30;;;;;;5054276;28;20032;-70
2020/12/30 02:53:56;;;;;;;8.40;6.10;;;8.50;57.50;;;;;;5054231;28;20492;-70
2020/12/30 02:56:22;;;;;;;10.40;7.05;;;8.50;57.30;;;;;;5054156;28;20391;-69
2020/12/30 02:58:48;;;;;;;7.10;5.25;;;8.50;57.40;;;;;;5054221;28;20045;-69
2020/12/30 03:01:15;;;;;;;10.18;7.13;;;8.40;57.20;;;;;;5054325;28;20433;-69
2020/12/30 03:03:41;;;;;;;9.55;6.45;;;8.50;57.60;;;;;;5054196;28;20432;-69
2020/12/30 03:06:07;;;;;;;10.30;6.47;;;8.50;57.50;;;;;;5019803;28;20171;-71
2020/12/30 03:08:34;;;;;;;7.95;5.60;;;8.50;57.40;;;;;;5035920;28;20029;-69
2020/12/30 03:11:00;;;;;;;9.85;6.63;;;8.50;57.30;;;;;;5053818;28;20432;-69
2020/12/30 03:13:27;;;;;;;7.00;5.38;;;8.50;56.90;;;;;;5053523;28;20044;-70
2020/12/30 03:15:53;;;;;;;9.68;6.70;;;8.50;57.30;;;;;;5053568;28;20519;-69
2020/12/30 03:18:19;;;;;;;9.02;5.90;;;8.50;57.20;;;;;;5053780;28;20041;-70
2020/12/30 03:20:45;;;;;;;8.35;5.75;;;8.50;57.30;;;;;;5053852;28;20212;-70
2020/12/30 03:23:11;;;;;;;7.90;6.13;;;8.50;57.10;;;;;;5053811;28;20580;-70
2020/12/30 03:25:37;;;;;;;10.40;5.88;;;8.50;57.30;;;;;;5053701;28;20043;-71
2020/12/30 03:28:03;;;;;;;7.88;5.90;;;8.50;56.90;;;;;;5053756;28;20033;-69
2020/12/30 03:30:29;;;;;;;7.20;5.80;;;8.50;57.40;;;;;;5053617;28;20040;-70
2020/12/30 03:32:55;;;;;;;10.20;7.03;;;8.40;57.20;;;;;;5053684;28;20029;-70
2020/12/30 03:35:24;;;;;;;8.38;5.55;;;8.50;57.50;;;;;;5053513;28;20053;-70
2020/12/30 03:37:54;;;;;;;10.02;6.10;;;8.50;57.10;;;;;;5035729;28;20041;-70
2020/12/30 03:40:21;;;;;;;7.13;5.68;;;8.50;58.00;;;;;;5053287;28;20040;-71
2020/12/30 03:42:47;;;;;;;8.48;6.32;;;8.50;57.30;;;;;;5052682;28;20059;-70
2020/12/30 03:45:13;;;;;;;8.70;6.38;;;8.50;57.20;;;;;;5053088;28;20040;-69
2020/12/30 03:47:39;;;;;;;9.23;6.22;;;8.50;57.40;;;;;;5052864;28;20029;-70
2020/12/30 03:50:05;;;;;;;6.97;5.20;;;8.50;57.20;;;;;;5053098;28;20082;-70
2020/12/30 03:52:31;;;;;;;8.60;5.55;;;8.50;57.30;;;;;;5035546;28;20045;-70
2020/12/30 03:54:58;;;;;;;9.38;5.88;;;8.50;57.10;;;;;;5035037;28;20048;-71
2020/12/30 03:57:25;;;;;;;10.27;6.80;;;8.50;57.30;;;;;;5053049;28;20480;-74
2020/12/30 03:59:51;;;;;;;9.75;7.00;;;8.50;57.00;;;;;;5053041;28;20041;-69
2020/12/30 04:02:18;;;;;;;11.55;7.32;;;8.50;57.40;;;;;;5052881;28;20047;-69
2020/12/30 04:04:44;;;;;;;9.35;6.50;;;8.50;57.30;;;;;;5034918;28;20404;-70
2020/12/30 04:07:11;;;;;;;9.52;6.13;;;8.50;57.20;;;;;;5052787;28;20033;-69
2020/12/30 04:09:37;;;;;;;9.55;6.70;;;8.50;57.30;;;;;;5035019;28;20044;-69
2020/12/30 04:12:03;;;;;;;10.68;6.43;;;8.50;57.20;;;;;;5035863;28;20064;-70
2020/12/30 04:14:29;;;;;;;10.18;6.43;;;8.50;57.30;;;;;;5053026;28;20040;-70
2020/12/30 04:16:55;;;;;;;9.63;6.65;;;8.50;57.10;;;;;;5052553;28;20158;-70
2020/12/30 04:19:21;;;;;;;10.30;6.90;;;8.50;57.20;;;;;;5052639;28;20037;-69
2020/12/30 04:21:47;;;;;;;8.82;6.30;;;8.50;57.00;;;;;;5053373;28;20464;-70
2020/12/30 04:24:13;;;;;;;9.00;6.20;;;8.50;57.10;;;;;;5034858;28;20529;-72
2020/12/30 04:26:39;;;;;;;11.57;7.05;;;8.50;57.00;;;;;;5052480;28;20032;-71
2020/12/30 04:29:05;;;;;;;9.95;7.03;;;8.50;57.50;;;;;;5052749;28;20041;-68
2020/12/30 04:31:30;;;;;;;9.75;7.13;;;8.50;57.40;;;;;;5052437;28;20056;-69
2020/12/30 04:33:56;;;;;;;10.38;6.63;;;8.60;57.50;;;;;;5052223;28;20110;-70
2020/12/30 04:36:22;;;;;;;10.63;6.45;;;8.50;57.30;;;;;;5052332;28;20037;-70
2020/12/30 04:38:48;;;;;;;11.65;7.10;;;8.50;57.00;;;;;;5053069;28;20041;-73
2020/12/30 04:41:22;;;;;;;12.32;7.93;;;8.50;57.10;;;;;;5052195;28;20029;-71
2020/12/30 04:43:49;;;;;;;12.27;6.80;;;8.50;57.10;;;;;;5052301;28;20037;-72
2020/12/30 04:46:17;;;;;;;12.25;7.22;;;8.60;57.50;;;;;;5034731;28;20559;-71
2020/12/30 04:48:43;;;;;;;11.23;7.03;;;8.50;57.30;;;;;;5032783;28;20063;-71
2020/12/30 04:51:13;;;;;;;12.73;7.35;;;8.50;57.40;;;;;;5051637;28;20029;-70
2020/12/30 04:53:40;;;;;;;11.38;6.85;;;8.60;57.30;;;;;;5052231;28;20098;-73
2020/12/30 04:56:07;;;;;;;11.73;7.65;;;8.50;57.30;;;;;;5054384;28;20076;-73
2020/12/30 04:58:33;;;;;;;13.30;8.52;;;8.60;57.30;;;;;;5055928;28;20040;-73
2020/12/30 05:00:59;;;;;;;9.02;5.80;;;8.50;57.20;;;;;;5038773;28;20408;-72
2020/12/30 05:03:28;;;;;;;10.65;6.80;;;8.50;57.10;;;;;;5056317;28;20067;-72
2020/12/30 05:05:55;;;;;;;9.60;6.20;;;8.50;57.00;;;;;;5056386;28;20119;-72
2020/12/30 05:08:21;;;;;;;11.55;7.55;;;8.60;57.10;;;;;;5056364;28;20029;-72
2020/12/30 05:10:49;;;;;;;11.45;6.70;;;8.50;56.90;;;;;;5056440;28;20029;-71
2020/12/30 05:13:15;;;;;;;13.57;7.90;;;8.60;57.30;;;;;;5055937;28;20130;-72
2020/12/30 05:15:42;;;;;;;10.02;7.32;;;8.50;57.10;;;;;;5055903;28;20459;-72
2020/12/30 05:18:08;;;;;;;12.43;7.68;;;8.50;57.30;;;;;;5055883;28;20041;-73
2020/12/30 05:20:37;;;;;;;14.50;9.18;;;8.50;57.10;;;;;;5056168;28;20128;-72
2020/12/30 05:23:07;;;;;;;11.02;6.53;;;8.60;57.40;;;;;;5037723;28;20037;-72
2020/12/30 05:25:42;;;;;;;12.93;7.82;;;8.60;57.30;;;;;;5055750;28;20045;-72
2020/12/30 05:28:12;;;;;;;;;;;8.60;57.50;;;;;;5039596;28;20075;-72
2020/12/30 05:30:41;;;;;;;14.60;8.98;;;8.60;57.90;;;;;;5055483;28;20398;-73
2020/12/30 05:33:07;;;;;;;11.88;6.55;;;8.60;57.50;;;;;;5055542;28;20052;-73
2020/12/30 05:35:34;;;;;;;13.23;8.52;;;8.60;57.40;;;;;;5055034;28;20057;-71
2020/12/30 05:38:01;;;;;;;13.60;8.35;;;8.60;57.20;;;;;;5055531;28;20534;-72
2020/12/30 05:40:31;;;;;;;13.13;7.65;;;8.60;57.40;;;;;;5055555;28;20052;-71
2020/12/30 05:43:15;;;;;;;15.30;9.18;;;8.60;57.50;;;;;;5038019;28;20052;-71
2020/12/30 05:45:48;;;;;;;14.23;8.15;;;8.60;57.80;;;;;;5055660;28;20503;-71
2020/12/30 05:48:15;;;;;;;14.60;8.73;;;8.60;57.50;;;;;;5056080;28;20033;-72
2020/12/30 05:50:55;;;;;;;13.95;8.20;;;8.60;57.50;;;;;;5055170;28;20044;-71
2020/12/30 05:53:22;;;;;;;14.88;8.80;;;8.60;57.30;;;;;;5055326;28;20068;-72
2020/12/30 05:56:08;;;;;;;14.32;8.32;;;8.60;57.50;;;;;;5055221;28;20044;-72
2020/12/30 05:58:47;;;;;;;17.33;9.40;;;8.60;57.30;;;;;;5037299;28;20029;-72
2020/12/30 06:01:29;;;;;;;13.70;7.97;;;8.60;57.60;;;;;;5055075;28;20041;-72
2020/12/30 06:03:56;;;;;;;15.52;8.90;;;8.60;57.20;;;;;;5055338;28;20132;-74
2020/12/30 06:06:22;;;;;;;14.90;7.90;;;8.60;57.30;;;;;;5054525;28;20037;-73
2020/12/30 06:08:52;;;;;;;18.95;9.23;;;8.60;57.30;;;;;;5055311;28;20143;-73
2020/12/30 06:11:24;;;;;;;15.43;7.85;;;8.60;57.50;;;;;;5055353;28;20496;-72
2020/12/30 06:13:54;;;;;;;16.48;8.73;;;8.60;57.50;;;;;;5054938;28;20076;-71
2020/12/30 06:16:28;;;;;;;16.85;8.43;;;8.60;57.30;;;;;;5054693;28;20033;-75
2020/12/30 06:18:56;;;;;;;17.58;8.57;;;8.60;57.30;;;;;;5037187;28;20045;-75
2020/12/30 06:21:24;;;;;;;16.10;9.75;;;8.70;57.40;;;;;;5054691;28;20443;-73
2020/12/30 06:23:55;;;;;;;15.82;8.23;;;8.60;57.50;;;;;;5054896;28;20132;-71
2020/12/30 06:26:26;;;;;;;16.88;9.82;;;8.70;57.20;;;;;;5055094;28;20032;-71
2020/12/30 06:28:54;;;;;;;18.33;9.07;;;8.70;57.60;;;;;;5037130;28;20033;-69
2020/12/30 06:31:21;;;;;;;14.98;8.35;;;8.70;57.40;;;;;;5054637;28;20044;-70
2020/12/30 06:33:48;;;;;;;14.80;8.48;;;8.60;56.90;;;;;;5054259;28;20091;-77
2020/12/30 06:36:23;;;;;;;15.07;9.05;;;8.60;56.50;;;;;;5054316;28;20496;-72
2020/12/30 06:38:49;;;;;;;16.30;8.40;;;8.50;56.80;;;;;;5055004;28;20037;-73
2020/12/30 06:41:15;;;;;;;17.88;9.02;;;8.50;56.50;;;;;;5054635;28;20040;-73
2020/12/30 06:43:45;;;;;;;15.95;8.77;;;8.40;56.80;;;;;;5054584;28;20044;-72
2020/12/30 06:46:12;;;;;;;17.75;10.50;;;8.30;56.70;;;;;;5054462;28;20041;-69
2020/12/30 06:48:59;;;;;;;16.15;9.20;;;8.30;56.80;;;;;;5054204;28;20033;-69
2020/12/30 06:51:26;;;;;;;16.77;9.40;;;8.20;57.10;;;;;;5054088;28;20033;-70
2020/12/30 06:53:55;;;;;;;16.83;9.35;;;8.20;57.10;;;;;;5053710;28;20480;-71
2020/12/30 06:56:44;;;;;;;16.50;9.45;;;8.20;57.50;;;;;;5054380;28;20069;-71
2020/12/30 06:59:27;;;;;;;16.65;9.23;;;8.20;57.50;;;;;;5053824;28;20519;-71
2020/12/30 07:01:56;;;;;;;19.30;10.38;;;8.20;57.60;;;;;;5054407;28;20068;-69
2020/12/30 07:04:23;;;;;;;18.20;9.70;;;8.10;57.60;;;;;;5053787;28;20060;-71
2020/12/30 07:06:48;;;;;;;18.70;8.88;;;8.10;57.60;;;;;;5053861;28;20055;-68
2020/12/30 07:09:16;;;;;;;18.75;9.80;;;8.10;57.60;;;;;;5053920;28;20040;-72
2020/12/30 07:11:55;;;;;;;16.90;8.73;;;8.10;58.00;;;;;;5053958;28;20036;-75
2020/12/30 07:14:26;;;;;;;18.85;9.82;;;8.10;57.60;;;;;;5054295;28;20033;-74
2020/12/30 07:16:53;;;;;;;18.63;10.20;;;8.10;58.30;;;;;;5054157;28;20087;-74
2020/12/30 07:19:32;;;;;;;19.80;10.43;;;8.10;57.90;;;;;;5052766;28;20040;-74
2020/12/30 07:22:01;;;;;;;18.58;10.15;;;8.10;58.50;;;;;;5053738;28;20041;-75
2020/12/30 07:24:46;;;;;;;19.50;10.38;;;8.10;58.10;;;;;;5053655;28;20040;-75
2020/12/30 07:27:16;;;;;;;17.90;9.57;;;8.10;58.10;;;;;;5053444;28;20041;-71
2020/12/30 07:29:43;;;;;;;17.73;9.70;;;8.00;58.10;;;;;;5053491;28;20034;-71
2020/12/30 07:32:10;;;;;;;17.98;9.57;;;8.10;58.40;;;;;;5053593;28;20040;-70
2020/12/30 07:34:47;;;;;;;19.58;10.35;;;8.10;58.40;;;;;;5054777;28;20470;-74
2020/12/30 07:37:15;;;;;;;20.15;11.13;;;8.10;58.20;;;;;;5073437;28;20025;-74
2020/12/30 07:39:43;;;;;;;17.45;9.02;;;8.10;58.40;;;;;;5073348;28;20032;-74
2020/12/30 07:42:12;;;;;;;20.75;10.27;;;8.10;58.30;;;;;;5073686;28;20032;-74
2020/12/30 07:44:49;;;;;;;18.60;9.82;;;8.10;58.60;;;;;;5073517;28;20086;-75
2020/12/30 07:47:17;;;;;;;21.83;10.70;;;8.10;58.30;;;;;;5073209;28;20036;-74
2020/12/30 07:49:44;;;;;;;18.13;10.82;;;8.10;58.60;;;;;;5073144;28;20036;-76
2020/12/30 07:52:10;;;;;;;22.90;11.32;;;8.10;58.60;;;;;;5073220;28;20032;-69
2020/12/30 07:54:38;;;;;;;23.17;11.35;;;8.10;58.40;;;;;;5073005;28;20051;-74
2020/12/30 07:57:13;;;;;;;19.63;10.85;;;8.10;58.40;;;;;;5071749;28;20123;-74
2020/12/30 07:59:41;;;;;;;19.48;10.00;;;8.10;58.40;;;;;;5071723;28;20033;-73
2020/12/30 08:02:11;;;;;;;22.20;10.90;;;8.10;58.50;;;;;;5073006;28;20043;-73
2020/12/30 08:04:38;;;;;;;19.65;11.45;;;8.10;59.00;;;;;;5073548;28;20040;-72
2020/12/30 08:07:06;;;;;;;20.73;11.27;;;8.10;58.60;;;;;;5072732;28;20503;-71
2020/12/30 08:09:43;;;;;;;20.17;11.23;;;8.10;58.50;;;;;;5072733;28;20424;-74
2020/12/30 08:12:11;;;;;;;21.98;10.70;;;8.10;58.70;;;;;;5072488;28;20438;-69
2020/12/30 08:14:39;;;;;;;20.42;11.00;;;8.10;58.50;;;;;;5072918;28;20041;-73
2020/12/30 08:17:09;;;;;;;20.63;11.27;;;8.10;58.50;;;;;;5071665;28;20047;-69
2020/12/30 08:19:38;;;;;;;18.17;10.30;;;8.20;58.60;;;;;;5072766;28;20078;-73
2020/12/30 08:22:17;;;;;;;18.88;9.77;;;8.20;58.60;;;;;;5071037;28;20476;-69
2020/12/30 08:24:48;;;;;;;20.60;11.07;;;8.20;58.50;;;;;;5072535;28;20089;-75
2020/12/30 08:27:15;;;;;;;22.73;11.63;;;8.10;58.40;;;;;;5071584;28;20127;-74
2020/12/30 08:29:44;;;;;;;29.42;13.15;;;8.10;58.40;;;;;;5072278;28;20443;-74
2020/12/30 08:32:17;;;;;;;23.38;12.45;;;8.10;58.40;;;;;;5072650;28;20029;-72
2020/12/30 08:35:08;;;;;;;24.95;11.55;;;8.10;58.50;;;;;;5059990;28;20061;-73
2020/12/30 08:37:43;;;;;;;22.45;11.75;;;8.10;58.50;;;;;;5040634;28;20045;-74
2020/12/30 08:40:25;;;;;;;23.88;11.20;;;8.10;58.40;;;;;;5052651;28;20115;-74
2020/12/30 08:42:53;;;;;;;21.90;11.30;;;8.10;58.10;;;;;;5052796;28;20037;-74
2020/12/30 08:45:31;;;;;;;29.90;13.20;;;8.10;58.60;;;;;;5052219;28;20049;-73
2020/12/30 08:47:59;;;;;;;26.90;11.50;;;8.10;58.40;;;;;;5052264;28;20028;-71
2020/12/30 08:50:26;;;;;;;24.15;11.45;;;8.10;58.80;;;;;;5034722;28;20485;-73
2020/12/30 08:52:55;;;;;;;23.42;11.50;;;8.20;58.20;;;;;;5052186;28;20447;-72
2020/12/30 08:55:21;;;;;;;23.15;12.13;;;8.10;58.40;;;;;;5052375;28;20075;-71
2020/12/30 08:57:48;;;;;;;26.25;12.48;;;8.10;58.50;;;;;;5052451;28;20060;-72
2020/12/30 09:00:24;;;;;;;24.20;11.75;;;8.10;58.30;;;;;;5051958;28;20037;-75
2020/12/30 09:02:52;;;;;;;22.60;11.50;;;8.10;58.60;;;;;;5018035;28;20037;-78
2020/12/30 09:05:31;;;;;;;24.33;12.60;;;8.10;58.50;;;;;;5052261;28;20067;-75
2020/12/30 09:08:14;;;;;;;22.52;11.25;;;8.10;58.60;;;;;;5052205;28;20037;-76
2020/12/30 09:10:42;;;;;;;20.50;10.70;;;8.10;58.50;;;;;;5033979;28;20040;-75
2020/12/30 09:13:13;;;;;;;26.48;12.85;;;8.10;58.60;;;;;;5052674;28;20102;-73
2020/12/30 09:15:39;;;;;;;24.98;12.60;;;8.10;58.30;;;;;;5052293;28;20056;-71
2020/12/30 09:18:06;;;;;;;21.38;11.60;;;8.10;58.90;;;;;;5051993;28;20063;-72
2020/12/30 09:20:33;;;;;;;24.40;12.25;;;8.10;58.40;;;;;;5051902;28;20090;-73
2020/12/30 09:23:03;;;;;;;24.50;12.57;;;8.10;58.60;;;;;;5052347;28;20029;-72
2020/12/30 09:25:35;;;;;;;22.13;11.35;;;8.10;58.50;;;;;;5052054;28;20036;-72
2020/12/30 09:28:13;;;;;;;22.85;11.77;;;8.10;58.60;;;;;;5052121;28;20037;-74
2020/12/30 09:30:39;;;;;;;27.80;14.23;;;8.10;58.60;;;;;;5051854;28;20047;-73
2020/12/30 09:33:13;;;;;;;25.35;12.60;;;8.10;58.60;;;;;;5051206;28;20045;-73
2020/12/30 09:35:40;;;;;;;25.58;12.85;;;8.10;58.50;;;;;;5051328;28;20041;-73
2020/12/30 09:38:06;;;;;;;23.35;11.77;;;8.10;58.70;;;;;;5051785;28;20041;-73
2020/12/30 09:40:40;;;;;;;25.02;12.63;;;8.10;58.60;;;;;;5051811;28;20090;-73
2020/12/30 09:43:14;;;;;;;24.88;12.13;;;8.10;58.40;;;;;;5055091;28;20036;-74
2020/12/30 09:45:40;;;;;;;23.33;11.88;;;8.10;58.70;;;;;;5054382;28;20395;-71
2020/12/30 09:48:11;;;;;;;25.17;12.90;;;8.10;58.60;;;;;;5054151;28;20051;-71
2020/12/30 09:50:37;;;;;;;25.05;12.80;;;8.20;58.80;;;;;;5055553;28;20040;-72
2020/12/30 09:53:03;;;;;;;29.02;13.13;;;8.10;58.60;;;;;;5055680;28;20048;-71
2020/12/30 09:55:29;;;;;;;25.02;12.18;;;8.10;58.90;;;;;;5054235;28;20120;-72
2020/12/30 09:57:55;;;;;;;24.02;12.02;;;8.10;58.40;;;;;;5054083;28;20029;-72
2020/12/30 10:00:21;;;;;;;25.48;13.52;;;8.10;58.70;;;;;;5055378;28;20409;-72
2020/12/30 10:02:47;;;;;;;27.30;11.32;;;8.10;58.50;;;;;;5055106;28;20040;-72
2020/12/30 10:05:13;;;;;;;22.48;12.00;;;8.20;58.60;;;;;;5054718;28;20037;-72
2020/12/30 10:07:39;;;;;;;23.88;12.48;;;8.20;58.70;;;;;;5054839;28;20078;-72
2020/12/30 10:10:05;;;;;;;24.33;11.52;;;8.20;58.40;;;;;;5054982;28;20037;-72
2020/12/30 10:12:31;;;;;;;21.77;11.25;;;8.20;58.50;;;;;;5054926;28;20041;-72
2020/12/30 10:14:57;;;;;;;27.70;12.50;;;8.20;58.40;;;;;;5053236;28;20055;-72
2020/12/30 10:17:23;;;;;;;21.85;11.90;;;8.20;58.80;;;;;;5054568;28;20037;-72
2020/12/30 10:19:48;;;;;;;24.50;11.93;;;8.20;58.60;;;;;;5055034;28;20033;-72
2020/12/30 10:22:14;;;;;;;26.95;12.85;;;8.20;58.70;;;;;;5054633;28;20029;-74
2020/12/30 10:24:44;;;;;;;22.52;11.57;;;8.20;58.60;;;;;;5054432;28;20033;-74
2020/12/30 10:27:13;;;;;;;27.98;13.50;;;8.20;58.60;;;;;;5054338;28;20037;-71
2020/12/30 10:29:39;;;;;;;25.08;12.85;;;8.20;58.70;;;;;;5054571;28;20454;-73
2020/12/30 10:32:05;;;;;;;25.45;12.15;;;8.20;58.60;;;;;;5054526;28;20119;-75
2020/12/30 10:34:32;;;;;;;26.08;12.65;;;8.20;58.70;;;;;;5054238;28;20084;-74
2020/12/30 10:36:58;;;;;;;26.10;13.57;;;8.20;58.60;;;;;;5054619;28;20045;-73
2020/12/30 10:39:24;;;;;;;30.88;13.80;;;8.20;58.70;;;;;;5054620;28;20128;-73
2020/12/30 10:41:57;;;;;;;28.23;13.35;;;8.20;58.60;;;;;;5055196;28;20071;-73
2020/12/30 10:44:24;;;;;;;28.23;14.27;;;8.20;58.70;;;;;;5056057;28;20064;-74
2020/12/30 10:46:50;;;;;;;30.63;14.05;;;8.20;58.50;;;;;;5036461;28;20044;-72
2020/12/30 10:49:16;;;;;;;30.00;15.18;;;8.20;58.70;;;;;;5036450;28;20052;-72
2020/12/30 10:51:50;;;;;;;30.17;13.88;;;8.20;58.60;;;;;;5054132;28;20029;-72
2020/12/30 10:54:17;;;;;;;28.98;13.65;;;8.20;58.70;;;;;;5054159;28;20045;-72
2020/12/30 10:56:47;;;;;;;30.77;15.35;;;8.20;58.80;;;;;;5036021;28;20495;-72
2020/12/30 10:59:14;;;;;;;28.00;13.50;;;8.20;58.80;;;;;;5053913;28;20505;-73
2020/12/30 11:01:39;;;;;;;25.30;13.10;;;8.20;59.00;;;;;;5053981;28;20044;-73
2020/12/30 11:04:05;;;;;;;30.08;15.45;;;8.10;58.70;;;;;;5053913;28;20164;-73
2020/12/30 11:06:32;;;;;;;24.10;12.93;;;8.10;59.00;;;;;;5036001;28;20040;-73
2020/12/30 11:08:57;;;;;;;27.27;13.95;;;8.20;58.80;;;;;;5053940;28;20032;-73
2020/12/30 11:11:24;;;;;;;27.50;13.90;;;8.20;59.00;;;;;;5053856;28;20040;-73
2020/12/30 11:13:49;;;;;;;27.23;13.25;;;8.10;59.30;;;;;;5053752;28;20044;-73
2020/12/30 11:16:15;;;;;;;27.73;15.52;;;8.20;58.90;;;;;;5054130;28;20135;-73
2020/12/30 11:18:41;;;;;;;27.33;15.25;;;8.20;58.90;;;;;;5053652;28;20036;-73
2020/12/30 11:21:09;;;;;;;24.52;13.43;;;8.10;58.90;;;;;;5053455;28;20041;-73
2020/12/30 11:23:35;;;;;;;26.25;13.93;;;8.10;58.90;;;;;;5053393;28;20029;-73
2020/12/30 11:26:01;;;;;;;28.38;14.63;;;8.10;59.10;;;;;;5035763;28;20025;-73
2020/12/30 11:28:28;;;;;;;29.77;14.32;;;8.20;59.10;;;;;;5053347;28;20072;-73
2020/12/30 11:30:54;;;;;;;23.85;12.35;;;8.10;59.00;;;;;;5035318;28;20062;-73
2020/12/30 11:33:20;;;;;;;25.48;12.75;;;8.20;59.20;;;;;;5054443;28;20032;-74
2020/12/30 11:35:46;;;;;;;24.45;13.23;;;8.10;58.90;;;;;;5054816;28;20140;-72
2020/12/30 11:38:11;;;;;;;24.30;12.57;;;8.10;59.20;;;;;;5053723;28;20037;-72
2020/12/30 11:40:40;;;;;;;24.27;13.65;;;8.10;59.00;;;;;;5035453;28;20041;-72
2020/12/30 11:43:06;;;;;;;20.55;12.43;;;8.20;59.40;;;;;;5053157;28;20040;-74
2020/12/30 11:45:33;;;;;;;23.10;13.27;;;8.10;59.20;;;;;;5053071;28;20115;-74
2020/12/30 11:47:59;;;;;;;25.90;14.30;;;8.10;59.30;;;;;;5053307;28;20065;-74
2020/12/30 11:50:25;;;;;;;22.92;12.90;;;8.10;59.10;;;;;;5035454;28;20025;-73
2020/12/30 11:52:51;;;;;;;24.50;12.25;;;8.20;59.40;;;;;;5053351;28;20037;-74
2020/12/30 11:55:17;;;;;;;24.42;13.05;;;8.10;59.30;;;;;;5035521;28;20385;-76
2020/12/30 11:57:43;;;;;;;25.40;12.15;;;8.20;59.40;;;;;;5053282;28;20441;-74
2020/12/30 12:00:10;;;;;;;28.35;14.23;;;8.10;59.30;;;;;;5053024;28;20048;-73
2020/12/30 12:02:36;;;;;;;21.33;12.48;;;8.10;59.00;;;;;;5053020;28;20036;-72
2020/12/30 12:05:03;;;;;;;24.10;12.82;;;8.10;59.40;;;;;;5052429;28;20497;-73
2020/12/30 12:07:30;;;;;;;23.08;13.27;;;8.20;59.20;;;;;;5052801;28;20493;-73
2020/12/30 12:09:57;;;;;;;23.20;12.80;;;8.10;59.30;;;;;;5052877;28;20119;-72
2020/12/30 12:12:23;;;;;;;23.40;11.68;;;8.10;59.20;;;;;;5052509;28;20443;-73
2020/12/30 12:14:49;;;;;;;24.50;11.63;;;8.10;59.50;;;;;;5052308;28;20037;-73
2020/12/30 12:17:15;;;;;;;22.55;12.50;;;8.10;59.30;;;;;;5052805;28;20098;-72
2020/12/30 12:19:41;;;;;;;21.48;12.00;;;8.10;59.50;;;;;;5052453;28;20040;-72
2020/12/30 12:22:07;;;;;;;24.80;11.82;;;8.10;59.70;;;;;;5052388;28;20120;-73
2020/12/30 12:24:33;;;;;;;24.55;13.80;;;8.10;59.60;;;;;;5053045;28;20029;-74
2020/12/30 12:26:59;;;;;;;22.58;12.35;;;8.10;60.40;;;;;;5052430;28;20028;-73
2020/12/30 12:29:34;;;;;;;23.48;13.35;;;8.10;59.40;;;;;;5052420;28;20051;-71
2020/12/30 12:32:24;;;;;;;23.67;13.15;;;8.10;59.80;;;;;;5053101;28;20491;-72
2020/12/30 12:34:55;;;;;;;27.02;14.85;;;8.10;59.50;;;;;;5053938;28;20056;-72
2020/12/30 12:37:24;;;;;;;22.23;12.63;;;8.10;59.80;;;;;;5072758;28;20028;-75
2020/12/30 12:39:51;;;;;;;22.30;12.00;;;8.10;59.60;;;;;;5071008;28;20119;-74
2020/12/30 12:42:19;;;;;;;25.83;13.75;;;8.00;59.60;;;;;;5055224;28;20499;-72
2020/12/30 12:44:45;;;;;;;23.40;12.40;;;8.10;59.50;;;;;;5071449;28;20044;-72
2020/12/30 12:47:11;;;;;;;26.67;12.80;;;8.10;59.60;;;;;;5071070;28;20114;-74
2020/12/30 12:49:37;;;;;;;27.35;15.18;;;8.00;59.60;;;;;;5071070;28;20044;-72
2020/12/30 12:52:04;;;;;;;28.25;13.20;;;8.10;59.70;;;;;;5072259;28;20067;-70